Time;durP1;ratioP1;P1;durP2;ratioP2;P2;SDS_P1;SDS_P2;PMS_P1;PMS_P2;Temp;Humidity;BMP_temperature;BMP_pressure;BME280_temperature;BME280_humidity;BME280_pressure;Samples;Min_cycle;Max_cycle;Signal;HPM_P1;HPM_P2
2022/01/07 00:01:35;;;;;;;31.27;5.35;;;;;;;;;;4994844;28;20061;-62
2022/01/07 00:04:01;;;;;;;23.95;4.32;;;;;;;;;;4994547;28;20058;-62
2022/01/07 00:06:27;;;;;;;36.15;5.53;;;;;;;;;;4994731;28;20041;-62
2022/01/07 00:08:53;;;;;;;29.98;4.25;;;;;;;;;;4994472;28;20558;-62
2022/01/07 00:11:20;;;;;;;18.30;3.78;;;;;;;;;;4994352;28;20109;-62
2022/01/07 00:13:46;;;;;;;23.23;3.88;;;;;;;;;;4993942;28;20030;-62
2022/01/07 00:16:12;;;;;;;22.40;3.60;;;;;;;;;;4994342;28;20395;-62
2022/01/07 00:18:41;;;;;;;23.35;4.22;;;;;;;;;;4994394;28;20045;-62
2022/01/07 00:21:08;;;;;;;32.70;4.80;;;;;;;;;;4994237;28;20506;-62
2022/01/07 00:23:34;;;;;;;28.75;5.28;;;;;;;;;;4994173;28;20034;-62
2022/01/07 00:26:00;;;;;;;29.95;5.32;;;;;;;;;;4994306;28;20026;-62
2022/01/07 00:28:26;;;;;;;24.73;5.68;;;;;;;;;;4993505;28;20487;-62
2022/01/07 00:30:52;;;;;;;24.20;4.50;;;;;;;;;;4994146;28;20018;-62
2022/01/07 00:33:19;;;;;;;21.15;3.85;;;;;;;;;;4993618;28;20033;-62
2022/01/07 00:35:46;;;;;;;22.13;4.28;;;;;;;;;;4994071;28;20109;-62
2022/01/07 00:38:12;;;;;;;31.08;4.30;;;;;;;;;;4993708;28;20073;-62
2022/01/07 00:40:38;;;;;;;15.73;3.90;;;;;;;;;;4994076;28;20037;-62
2022/01/07 00:43:04;;;;;;;26.13;5.03;;;;;;;;;;4993533;28;20397;-62
2022/01/07 00:45:30;;;;;;;26.88;4.97;;;;;;;;;;4993644;28;20030;-62
2022/01/07 00:47:57;;;;;;;23.85;4.47;;;;;;;;;;4993678;28;20038;-62
2022/01/07 00:50:26;;;;;;;29.67;4.75;;;;;;;;;;4993845;28;20030;-62
2022/01/07 00:52:52;;;;;;;23.63;6.07;;;;;;;;;;4993923;28;20057;-62
2022/01/07 00:55:18;;;;;;;22.67;3.80;;;;;;;;;;4993380;28;20080;-62
2022/01/07 00:57:44;;;;;;;31.75;6.00;;;;;;;;;;4993558;28;20026;-62
2022/01/07 01:00:12;;;;;;;29.90;6.60;;;;;;;;;;4976023;28;20038;-62
2022/01/07 01:02:39;;;;;;;24.42;4.45;;;;;;;;;;4993661;28;20081;-62
2022/01/07 01:05:06;;;;;;;23.75;3.85;;;;;;;;;;4993410;28;20037;-62
2022/01/07 01:07:32;;;;;;;24.80;3.75;;;;;;;;;;4993513;28;20482;-62
2022/01/07 01:09:58;;;;;;;16.98;3.67;;;;;;;;;;4993525;28;20038;-62
2022/01/07 01:12:25;;;;;;;22.33;3.97;;;;;;;;;;4992768;28;20022;-62
2022/01/07 01:14:51;;;;;;;18.20;4.35;;;;;;;;;;4993315;28;20106;-62
2022/01/07 01:17:17;;;;;;;25.58;3.55;;;;;;;;;;4992431;28;20030;-62
2022/01/07 01:19:43;;;;;;;27.15;4.05;;;;;;;;;;4993421;28;20034;-62
2022/01/07 01:22:10;;;;;;;20.40;3.50;;;;;;;;;;4992734;28;20062;-62
2022/01/07 01:24:36;;;;;;;13.45;3.58;;;;;;;;;;4993196;28;20046;-62
2022/01/07 01:27:02;;;;;;;22.27;4.18;;;;;;;;;;4993070;28;20034;-62
2022/01/07 01:29:28;;;;;;;25.55;3.70;;;;;;;;;;4992884;28;20402;-62
2022/01/07 01:31:54;;;;;;;28.42;4.50;;;;;;;;;;4993018;28;20039;-62
2022/01/07 01:34:20;;;;;;;23.70;4.55;;;;;;;;;;4992700;28;20467;-62
2022/01/07 01:36:47;;;;;;;28.20;4.82;;;;;;;;;;4992993;28;20129;-62
2022/01/07 01:39:13;;;;;;;20.75;3.85;;;;;;;;;;4992784;28;20064;-62
2022/01/07 01:41:40;;;;;;;19.55;4.47;;;;;;;;;;4975102;28;20121;-62
2022/01/07 01:44:06;;;;;;;29.40;3.95;;;;;;;;;;4992244;28;20030;-62
2022/01/07 01:46:32;;;;;;;19.05;3.25;;;;;;;;;;4993174;28;20027;-62
2022/01/07 01:48:58;;;;;;;19.40;3.30;;;;;;;;;;4992962;28;20037;-62
2022/01/07 01:51:24;;;;;;;20.52;3.10;;;;;;;;;;4992788;28;20026;-62
2022/01/07 01:53:51;;;;;;;22.88;2.85;;;;;;;;;;4992939;28;20479;-62
2022/01/07 01:56:17;;;;;;;20.08;3.35;;;;;;;;;;4992258;28;20106;-62
2022/01/07 01:58:43;;;;;;;14.55;3.50;;;;;;;;;;4992451;28;20030;-62
2022/01/07 02:01:09;;;;;;;21.48;2.95;;;;;;;;;;4992626;28;20142;-62
2022/01/07 02:03:35;;;;;;;18.30;3.15;;;;;;;;;;4992765;28;20487;-62
2022/01/07 02:06:01;;;;;;;17.17;3.30;;;;;;;;;;4992635;28;20033;-62
2022/01/07 02:08:29;;;;;;;26.70;4.57;;;;;;;;;;4992559;28;20029;-62
2022/01/07 02:10:55;;;;;;;18.15;3.20;;;;;;;;;;4992398;28;20483;-62
2022/01/07 02:13:21;;;;;;;16.75;2.63;;;;;;;;;;4992412;28;20030;-62
2022/01/07 02:15:47;;;;;;;19.30;3.03;;;;;;;;;;4992665;28;20117;-62
2022/01/07 02:18:16;;;;;;;25.05;2.83;;;;;;;;;;4992596;28;20030;-62
2022/01/07 02:20:42;;;;;;;15.98;3.75;;;;;;;;;;4992526;28;20057;-61
2022/01/07 02:23:08;;;;;;;16.38;2.85;;;;;;;;;;4992472;28;20023;-62
2022/01/07 02:25:34;;;;;;;18.45;3.75;;;;;;;;;;4992058;28;20031;-62
2022/01/07 02:28:00;;;;;;;11.32;2.88;;;;;;;;;;4992606;28;20043;-62
2022/01/07 02:30:28;;;;;;;20.45;2.70;;;;;;;;;;4991811;28;20041;-62
2022/01/07 02:32:54;;;;;;;24.35;3.60;;;;;;;;;;4992612;28;20076;-62
2022/01/07 02:35:22;;;;;;;22.90;2.55;;;;;;;;;;4992288;28;20026;-62
2022/01/07 02:37:48;;;;;;;30.65;4.65;;;;;;;;;;4992209;28;20399;-62
2022/01/07 02:40:14;;;;;;;24.92;2.78;;;;;;;;;;4992216;28;20030;-62
2022/01/07 02:42:41;;;;;;;18.20;2.53;;;;;;;;;;4991900;28;20069;-62
2022/01/07 02:45:08;;;;;;;16.08;3.55;;;;;;;;;;4992402;28;20034;-62
2022/01/07 02:47:45;;;;;;;20.75;2.80;;;;;;;;;;4992306;28;20080;-62
2022/01/07 02:50:11;;;;;;;15.07;3.10;;;;;;;;;;4992355;28;20479;-62
2022/01/07 02:52:37;;;;;;;20.27;4.20;;;;;;;;;;4991777;28;20018;-62
2022/01/07 02:55:04;;;;;;;13.55;3.10;;;;;;;;;;4992687;28;20030;-62
2022/01/07 02:57:30;;;;;;;24.77;2.55;;;;;;;;;;4995853;28;20030;-62
2022/01/07 02:59:56;;;;;;;21.38;2.50;;;;;;;;;;4995930;28;20034;-62
2022/01/07 03:02:22;;;;;;;26.42;3.17;;;;;;;;;;4995610;28;20019;-62
2022/01/07 03:04:48;;;;;;;22.33;2.47;;;;;;;;;;4996064;28;20147;-62
2022/01/07 03:07:14;;;;;;;21.17;2.72;;;;;;;;;;4995246;28;20026;-62
2022/01/07 03:09:40;;;;;;;14.32;2.72;;;;;;;;;;4995588;28;20034;-62
2022/01/07 03:12:06;;;;;;;19.08;2.70;;;;;;;;;;4995738;28;20030;-62
2022/01/07 03:14:33;;;;;;;23.60;3.40;;;;;;;;;;4995469;28;20029;-62
2022/01/07 03:16:59;;;;;;;8.70;2.08;;;;;;;;;;4995657;28;20118;-62
2022/01/07 03:19:25;;;;;;;19.15;3.50;;;;;;;;;;4995201;28;20058;-62
2022/01/07 03:21:51;;;;;;;19.10;3.10;;;;;;;;;;4994990;28;20034;-62
2022/01/07 03:24:17;;;;;;;19.52;2.40;;;;;;;;;;4995413;28;20055;-62
2022/01/07 03:26:43;;;;;;;20.88;3.17;;;;;;;;;;4995290;28;20038;-62
2022/01/07 03:29:09;;;;;;;12.43;2.47;;;;;;;;;;4995223;28;20062;-62
2022/01/07 03:31:36;;;;;;;25.25;2.95;;;;;;;;;;4995252;28;20030;-62
2022/01/07 03:34:03;;;;;;;25.17;3.08;;;;;;;;;;4995072;28;20475;-62
2022/01/07 03:36:29;;;;;;;17.67;3.17;;;;;;;;;;4994293;28;20030;-62
2022/01/07 03:38:57;;;;;;;22.27;4.50;;;;;;;;;;4992208;28;20082;-62
2022/01/07 03:41:23;;;;;;;19.25;3.25;;;;;;;;;;4994315;28;20030;-62
2022/01/07 03:43:49;;;;;;;21.95;3.75;;;;;;;;;;4994390;28;20026;-62
2022/01/07 03:46:16;;;;;;;19.23;3.20;;;;;;;;;;4996895;28;20064;-62
2022/01/07 03:48:42;;;;;;;20.30;4.15;;;;;;;;;;4993024;28;20096;-62
2022/01/07 03:51:08;;;;;;;19.65;3.65;;;;;;;;;;4993307;28;20360;-62
2022/01/07 03:53:34;;;;;;;16.65;2.50;;;;;;;;;;4993199;28;20506;-62
2022/01/07 03:56:01;;;;;;;26.05;2.80;;;;;;;;;;4995650;28;20022;-62
2022/01/07 03:58:27;;;;;;;15.38;2.42;;;;;;;;;;4995021;28;20109;-62
2022/01/07 04:00:53;;;;;;;28.70;3.33;;;;;;;;;;4996070;28;20494;-62
2022/01/07 04:03:19;;;;;;;18.42;2.65;;;;;;;;;;4993346;28;20022;-62
2022/01/07 04:05:46;;;;;;;19.20;3.05;;;;;;;;;;4991707;28;20022;-62
2022/01/07 04:08:12;;;;;;;17.85;2.95;;;;;;;;;;4992398;28;20368;-62
2022/01/07 04:10:39;;;;;;;15.75;2.53;;;;;;;;;;4992428;28;20472;-62
2022/01/07 04:13:05;;;;;;;26.02;3.03;;;;;;;;;;4988974;28;20561;-62
2022/01/07 04:15:31;;;;;;;19.98;2.60;;;;;;;;;;4993101;28;20096;-62
2022/01/07 04:17:58;;;;;;;17.10;2.78;;;;;;;;;;4993088;28;20030;-62
2022/01/07 04:20:25;;;;;;;20.23;3.35;;;;;;;;;;4992866;28;20534;-62
2022/01/07 04:22:52;;;;;;;19.33;2.83;;;;;;;;;;4993349;28;20030;-62
2022/01/07 04:25:18;;;;;;;18.58;3.90;;;;;;;;;;5001086;28;20021;-62
2022/01/07 04:28:05;;;;;;;25.45;3.63;;;;;;;;;;5002545;28;20549;-62
2022/01/07 04:30:33;;;;;;;19.05;3.90;;;;;;;;;;4990799;28;20053;-62
2022/01/07 04:33:01;;;;;;;20.40;3.40;;;;;;;;;;4993048;28;20077;-62
2022/01/07 04:35:27;;;;;;;27.90;3.67;;;;;;;;;;4992452;28;20034;-62
2022/01/07 04:37:53;;;;;;;22.05;3.28;;;;;;;;;;4991678;28;20042;-62
2022/01/07 04:40:20;;;;;;;19.08;2.85;;;;;;;;;;4992566;28;20057;-62
2022/01/07 04:42:47;;;;;;;10.80;2.40;;;;;;;;;;4993742;28;20039;-62
2022/01/07 04:45:13;;;;;;;23.45;3.40;;;;;;;;;;4993820;28;20399;-62
2022/01/07 04:47:41;;;;;;;18.15;2.53;;;;;;;;;;4993710;28;20442;-62
2022/01/07 04:50:08;;;;;;;20.08;2.53;;;;;;;;;;4993429;28;20411;-62
2022/01/07 04:52:34;;;;;;;25.02;2.65;;;;;;;;;;4993338;28;20027;-62
2022/01/07 04:55:01;;;;;;;25.67;3.47;;;;;;;;;;4993714;28;20030;-62
2022/01/07 04:57:27;;;;;;;13.32;2.83;;;;;;;;;;4993698;28;20502;-62
2022/01/07 04:59:53;;;;;;;22.20;2.63;;;;;;;;;;4993570;28;20041;-62
2022/01/07 05:02:20;;;;;;;24.73;2.97;;;;;;;;;;4993707;28;20087;-62
2022/01/07 05:04:47;;;;;;;13.45;2.80;;;;;;;;;;4993033;28;20105;-62
2022/01/07 05:07:13;;;;;;;12.55;1.92;;;;;;;;;;4993278;28;20105;-62
2022/01/07 05:09:39;;;;;;;14.70;2.50;;;;;;;;;;4992870;28;20454;-62
2022/01/07 05:12:06;;;;;;;14.13;2.72;;;;;;;;;;4993478;28;20092;-62
2022/01/07 05:14:32;;;;;;;16.92;3.15;;;;;;;;;;4993311;28;20446;-62
2022/01/07 05:16:58;;;;;;;22.75;3.10;;;;;;;;;;4993506;28;20037;-62
2022/01/07 05:19:24;;;;;;;21.25;3.55;;;;;;;;;;4992604;28;20066;-62
2022/01/07 05:21:50;;;;;;;12.07;2.38;;;;;;;;;;4992722;28;20429;-62
2022/01/07 05:24:16;;;;;;;25.83;3.00;;;;;;;;;;4993232;28;20469;-62
2022/01/07 05:26:42;;;;;;;22.55;3.40;;;;;;;;;;4992920;28;20080;-62
2022/01/07 05:29:08;;;;;;;20.52;3.08;;;;;;;;;;4993228;28;20399;-62
2022/01/07 05:31:34;;;;;;;13.10;3.33;;;;;;;;;;4993164;28;20027;-62
2022/01/07 05:34:01;;;;;;;14.40;1.90;;;;;;;;;;4992847;28;20026;-62
2022/01/07 05:36:27;;;;;;;7.30;1.10;;;;;;;;;;4992255;28;20057;-62
2022/01/07 05:38:53;;;;;;;9.45;1.88;;;;;;;;;;4992517;28;20043;-62
2022/01/07 05:41:20;;;;;;;6.88;1.20;;;;;;;;;;4993156;28;20041;-62
2022/01/07 05:43:46;;;;;;;7.25;1.50;;;;;;;;;;4992833;28;20030;-62
2022/01/07 05:46:14;;;;;;;7.30;1.95;;;;;;;;;;4992549;28;20037;-62
2022/01/07 05:48:45;;;;;;;8.98;2.20;;;;;;;;;;4992205;28;20030;-61
2022/01/07 05:51:11;;;;;;;16.63;3.30;;;;;;;;;;4992812;28;20026;-62
2022/01/07 05:53:37;;;;;;;18.45;2.25;;;;;;;;;;4992725;28;20048;-62
2022/01/07 05:56:04;;;;;;;18.27;2.60;;;;;;;;;;4991993;28;20045;-61
2022/01/07 05:58:30;;;;;;;17.40;2.22;;;;;;;;;;5000246;28;20025;-62
2022/01/07 06:00:57;;;;;;;15.23;4.22;;;;;;;;;;5000473;28;20030;-62
2022/01/07 06:03:23;;;;;;;10.77;1.88;;;;;;;;;;4986904;28;20027;-62
2022/01/07 06:05:49;;;;;;;15.63;2.78;;;;;;;;;;4992942;28;20053;-62
2022/01/07 06:08:15;;;;;;;15.13;2.50;;;;;;;;;;4973413;28;20034;-62
2022/01/07 06:10:41;;;;;;;15.00;2.75;;;;;;;;;;4989168;28;20138;-62
2022/01/07 06:13:07;;;;;;;19.85;3.22;;;;;;;;;;4975707;28;20062;-62
2022/01/07 06:15:34;;;;;;;16.83;2.72;;;;;;;;;;4990024;28;20069;-62
2022/01/07 06:18:02;;;;;;;25.33;4.38;;;;;;;;;;4989406;28;20044;-62
2022/01/07 06:20:28;;;;;;;25.15;3.35;;;;;;;;;;4985009;28;20026;-62
2022/01/07 06:22:55;;;;;;;13.20;2.67;;;;;;;;;;4991077;28;20367;-62
2022/01/07 06:25:21;;;;;;;18.38;2.90;;;;;;;;;;4992229;28;20541;-61
2022/01/07 06:27:47;;;;;;;22.50;3.35;;;;;;;;;;4990857;28;20118;-61
2022/01/07 06:30:13;;;;;;;14.90;2.95;;;;;;;;;;4988976;28;20438;-61
2022/01/07 06:32:39;;;;;;;18.17;3.00;;;;;;;;;;4996908;28;20057;-61
2022/01/07 06:35:06;;;;;;;16.67;3.72;;;;;;;;;;4999651;28;20038;-61
2022/01/07 06:37:32;;;;;;;19.20;2.67;;;;;;;;;;4993880;28;20385;-61
2022/01/07 06:39:58;;;;;;;11.75;2.72;;;;;;;;;;4987864;28;20149;-61
2022/01/07 06:42:25;;;;;;;19.25;3.20;;;;;;;;;;4991633;28;20034;-61
2022/01/07 06:44:51;;;;;;;15.48;2.85;;;;;;;;;;4995269;28;20026;-61
2022/01/07 06:47:17;;;;;;;24.85;4.32;;;;;;;;;;5004280;28;20125;-61
2022/01/07 06:49:43;;;;;;;18.58;2.75;;;;;;;;;;4996295;28;20022;-61
2022/01/07 06:52:09;;;;;;;14.27;2.92;;;;;;;;;;5000843;28;20029;-61
2022/01/07 06:54:35;;;;;;;25.60;4.60;;;;;;;;;;5001180;28;20478;-61
2022/01/07 06:57:01;;;;;;;14.32;3.40;;;;;;;;;;4992012;28;20061;-61
2022/01/07 06:59:27;;;;;;;15.30;2.88;;;;;;;;;;4996940;28;20029;-61
2022/01/07 07:01:53;;;;;;;20.05;3.10;;;;;;;;;;4990068;28;20034;-61
2022/01/07 07:04:20;;;;;;;17.98;2.83;;;;;;;;;;4994163;28;20482;-61
2022/01/07 07:06:46;;;;;;;21.00;3.83;;;;;;;;;;4992485;28;20034;-61
2022/01/07 07:09:12;;;;;;;19.00;3.05;;;;;;;;;;5001201;28;20019;-61
2022/01/07 07:11:39;;;;;;;25.58;6.15;;;;;;;;;;4995622;28;20062;-62
2022/01/07 07:14:05;;;;;;;19.58;3.15;;;;;;;;;;4995796;28;20096;-62
2022/01/07 07:16:31;;;;;;;16.83;2.90;;;;;;;;;;4996363;28;20018;-62
2022/01/07 07:18:58;;;;;;;31.15;4.22;;;;;;;;;;4998195;28;20063;-62
2022/01/07 07:21:24;;;;;;;18.50;3.10;;;;;;;;;;5002829;28;20044;-62
2022/01/07 07:23:50;;;;;;;31.25;4.15;;;;;;;;;;4998244;28;20458;-62
2022/01/07 07:26:16;;;;;;;24.33;3.55;;;;;;;;;;4995184;28;20038;-62
2022/01/07 07:28:42;;;;;;;28.25;3.80;;;;;;;;;;4999585;28;20076;-62
2022/01/07 07:31:14;;;;;;;34.45;5.40;;;;;;;;;;4996461;28;20023;-62
2022/01/07 07:36:27;;;;;;;22.52;3.53;;;;;;;;;;4996774;28;20041;-62
2022/01/07 07:39:22;;;;;;;28.75;6.95;;;;;;;;;;5001888;28;20576;-62
2022/01/07 07:41:49;;;;;;;22.63;4.00;;;;;;;;;;4973362;28;20030;-62
2022/01/07 07:44:16;;;;;;;28.58;4.03;;;;;;;;;;5002201;28;20498;-62
2022/01/07 07:46:43;;;;;;;30.45;4.32;;;;;;;;;;4998030;28;20022;-62
2022/01/07 07:49:10;;;;;;;39.65;6.63;;;;;;;;;;4974130;28;20026;-62
2022/01/07 07:51:36;;;;;;;32.03;5.18;;;;;;;;;;4989049;28;20117;-62
2022/01/07 07:54:03;;;;;;;21.77;4.28;;;;;;;;;;4991323;28;20026;-62
2022/01/07 07:56:30;;;;;;;29.20;3.83;;;;;;;;;;4987408;28;20847;-62
2022/01/07 07:58:58;;;;;;;16.25;3.00;;;;;;;;;;4994656;28;20150;-62
2022/01/07 08:01:24;;;;;;;20.17;3.92;;;;;;;;;;4999800;28;20153;-62
2022/01/07 08:03:50;;;;;;;26.50;3.25;;;;;;;;;;4996506;28;20018;-62
2022/01/07 08:06:16;;;;;;;25.75;3.22;;;;;;;;;;4992277;28;20034;-62
2022/01/07 08:08:42;;;;;;;34.30;4.30;;;;;;;;;;4996115;28;20037;-62
2022/01/07 08:11:11;;;;;;;30.13;4.38;;;;;;;;;;4998082;28;20085;-62
2022/01/07 08:16:25;;;;;;;29.67;4.78;;;;;;;;;;4993995;28;20026;-62
2022/01/07 08:18:55;;;;;;;18.98;3.42;;;;;;;;;;4992608;28;20058;-62
2022/01/07 08:21:24;;;;;;;22.20;4.65;;;;;;;;;;4992572;28;20121;-62
2022/01/07 08:23:51;;;;;;;25.95;4.07;;;;;;;;;;4991057;28;20501;-62
2022/01/07 08:26:17;;;;;;;24.27;3.33;;;;;;;;;;4995471;28;20053;-62
2022/01/07 08:28:48;;;;;;;27.45;3.45;;;;;;;;;;4996198;28;20102;-62
2022/01/07 08:36:28;;;;;;;15.52;3.45;;;;;;;;;;4974275;28;20426;-62
2022/01/07 08:38:55;;;;;;;22.95;3.65;;;;;;;;;;4992572;28;20039;-62
2022/01/07 08:41:22;;;;;;;22.45;4.10;;;;;;;;;;4990808;28;20113;-63
2022/01/07 08:43:49;;;;;;;25.65;4.22;;;;;;;;;;4996568;28;20034;-62
2022/01/07 08:46:15;;;;;;;20.45;3.33;;;;;;;;;;4992556;28;20050;-62
2022/01/07 08:48:42;;;;;;;29.52;3.72;;;;;;;;;;4993129;28;20545;-62
2022/01/07 08:51:08;;;;;;;12.73;2.50;;;;;;;;;;4993198;28;20031;-62
2022/01/07 08:53:35;;;;;;;27.33;3.60;;;;;;;;;;4991998;28;20026;-62
2022/01/07 08:56:01;;;;;;;14.82;4.28;;;;;;;;;;4990888;28;20125;-62
2022/01/07 08:58:27;;;;;;;27.83;4.70;;;;;;;;;;4989279;28;20033;-62
2022/01/07 09:00:53;;;;;;;28.00;4.25;;;;;;;;;;4993242;28;20030;-62
2022/01/07 09:03:20;;;;;;;27.92;4.70;;;;;;;;;;4994242;28;20035;-62
2022/01/07 09:05:46;;;;;;;25.33;4.05;;;;;;;;;;4991721;28;20022;-62
2022/01/07 09:08:12;;;;;;;20.70;3.85;;;;;;;;;;4992523;28;20026;-62
2022/01/07 09:10:39;;;;;;;22.58;4.55;;;;;;;;;;4992125;28;20169;-62
2022/01/07 09:13:05;;;;;;;29.55;3.72;;;;;;;;;;4991577;28;20029;-62
2022/01/07 09:15:32;;;;;;;31.85;5.45;;;;;;;;;;4992443;28;20025;-62
2022/01/07 09:17:58;;;;;;;21.05;4.57;;;;;;;;;;4994540;28;20066;-62
2022/01/07 09:20:24;;;;;;;26.05;5.20;;;;;;;;;;4993793;28;20053;-63
2022/01/07 09:22:50;;;;;;;32.35;4.93;;;;;;;;;;4990824;28;20062;-62
2022/01/07 09:25:16;;;;;;;29.40;4.78;;;;;;;;;;4992847;28;20038;-62
2022/01/07 09:27:42;;;;;;;20.77;4.10;;;;;;;;;;4996268;28;20044;-62
2022/01/07 09:30:10;;;;;;;27.33;3.92;;;;;;;;;;4991618;28;20029;-62
2022/01/07 09:32:37;;;;;;;24.00;4.60;;;;;;;;;;4993221;28;20026;-62
2022/01/07 09:35:03;;;;;;;19.67;4.40;;;;;;;;;;4989746;28;20060;-62
2022/01/07 09:37:29;;;;;;;27.67;5.00;;;;;;;;;;4989752;28;20045;-62
2022/01/07 09:39:55;;;;;;;23.65;4.80;;;;;;;;;;4989870;28;20121;-62
2022/01/07 09:42:22;;;;;;;19.92;4.30;;;;;;;;;;4990543;28;20031;-62
2022/01/07 09:44:48;;;;;;;32.72;3.92;;;;;;;;;;4991687;28;20561;-62
2022/01/07 09:47:16;;;;;;;24.65;4.05;;;;;;;;;;4999160;28;20025;-62
2022/01/07 09:49:42;;;;;;;18.30;4.00;;;;;;;;;;4969232;28;20026;-62
2022/01/07 09:52:08;;;;;;;19.85;3.85;;;;;;;;;;4997101;28;20025;-62
2022/01/07 09:54:36;;;;;;;23.02;4.20;;;;;;;;;;4988765;28;20022;-62
2022/01/07 09:57:02;;;;;;;25.80;5.22;;;;;;;;;;4988421;28;20113;-62
2022/01/07 09:59:29;;;;;;;19.40;3.10;;;;;;;;;;4989357;28;20493;-68
2022/01/07 10:01:56;;;;;;;19.42;4.03;;;;;;;;;;4986080;28;20080;-62
2022/01/07 10:04:28;;;;;;;25.95;4.50;;;;;;;;;;4983640;28;20041;-63
2022/01/07 10:07:21;;;;;;;32.33;8.23;;;;;;;;;;4988103;28;20026;-62
2022/01/07 10:09:58;;;;;;;25.93;3.83;;;;;;;;;;4987495;28;20133;-63
2022/01/07 10:12:25;;;;;;;26.13;4.43;;;;;;;;;;4980778;28;20295;-63
2022/01/07 10:15:10;;;;;;;24.50;4.18;;;;;;;;;;4994273;28;20023;-63
2022/01/07 10:17:36;;;;;;;26.77;4.82;;;;;;;;;;5001221;28;20113;-63
2022/01/07 10:20:02;;;;;;;24.25;3.80;;;;;;;;;;4995392;28;20042;-63
2022/01/07 10:22:28;;;;;;;25.67;6.30;;;;;;;;;;5002904;28;20105;-63
2022/01/07 10:24:56;;;;;;;34.42;3.88;;;;;;;;;;4997322;28;20022;-63
2022/01/07 10:27:22;;;;;;;22.90;3.83;;;;;;;;;;5002932;28;20026;-63
2022/01/07 10:29:48;;;;;;;19.20;3.20;;;;;;;;;;5001255;28;20041;-63
2022/01/07 10:32:21;;;;;;;29.75;4.63;;;;;;;;;;4998892;28;20058;-63
2022/01/07 10:35:02;;;;;;;17.83;4.00;;;;;;;;;;4998649;28;20027;-63
2022/01/07 10:37:29;;;;;;;28.45;6.13;;;;;;;;;;4997278;28;20050;-63
2022/01/07 10:39:55;;;;;;;27.88;5.38;;;;;;;;;;4991561;28;20040;-63
2022/01/07 10:42:25;;;;;;;21.13;5.15;;;;;;;;;;4993930;28;20065;-63
2022/01/07 10:44:58;;;;;;;21.88;3.40;;;;;;;;;;4993606;28;20038;-63
2022/01/07 10:47:24;;;;;;;27.77;4.57;;;;;;;;;;4995454;28;20038;-63
2022/01/07 10:49:51;;;;;;;22.98;4.03;;;;;;;;;;4991517;28;20120;-63
2022/01/07 10:52:23;;;;;;;21.38;4.00;;;;;;;;;;4989726;28;20598;-63
2022/01/07 10:55:10;;;;;;;21.67;4.03;;;;;;;;;;4990634;28;20033;-63
2022/01/07 10:57:39;;;;;;;27.70;4.60;;;;;;;;;;4994181;28;20034;-63
2022/01/07 11:00:09;;;;;;;27.00;5.15;;;;;;;;;;4992009;28;20031;-63
2022/01/07 11:02:36;;;;;;;31.13;4.78;;;;;;;;;;4990470;28;20026;-63
2022/01/07 11:05:02;;;;;;;19.25;4.15;;;;;;;;;;4993789;28;20040;-63
2022/01/07 11:07:28;;;;;;;32.15;5.80;;;;;;;;;;4993847;28;20041;-63
2022/01/07 11:09:56;;;;;;;29.48;4.50;;;;;;;;;;4990504;28;20393;-63
2022/01/07 11:12:23;;;;;;;39.60;4.57;;;;;;;;;;4990777;28;20034;-63
2022/01/07 11:14:49;;;;;;;37.95;5.47;;;;;;;;;;4994681;28;20030;-62
2022/01/07 11:17:22;;;;;;;24.42;4.82;;;;;;;;;;4992252;28;20040;-62
2022/01/07 11:19:52;;;;;;;30.52;4.50;;;;;;;;;;4984296;28;20453;-62
2022/01/07 11:22:19;;;;;;;23.95;4.38;;;;;;;;;;5003530;28;20037;-62
2022/01/07 11:24:47;;;;;;;32.08;5.97;;;;;;;;;;5002939;28;20494;-62
2022/01/07 11:27:25;;;;;;;27.70;4.90;;;;;;;;;;4997189;28;20037;-63
2022/01/07 11:29:52;;;;;;;28.88;5.00;;;;;;;;;;4998266;28;20760;-63
2022/01/07 11:32:37;;;;;;;30.52;6.00;;;;;;;;;;5002116;28;20064;-63
2022/01/07 11:35:19;;;;;;;30.20;6.18;;;;;;;;;;4995379;28;20077;-63
2022/01/07 11:37:45;;;;;;;29.50;5.13;;;;;;;;;;4998154;28;20065;-63
2022/01/07 11:40:27;;;;;;;36.45;8.23;;;;;;;;;;4994907;28;20089;-68
2022/01/07 11:42:53;;;;;;;34.20;5.30;;;;;;;;;;5003099;28;20027;-62
2022/01/07 11:45:34;;;;;;;37.65;5.70;;;;;;;;;;5001876;28;20348;-62
2022/01/07 11:48:09;;;;;;;40.13;6.45;;;;;;;;;;4999752;28;20030;-63
2022/01/07 11:50:48;;;;;;;35.65;6.30;;;;;;;;;;4997580;28;20033;-61
2022/01/07 11:53:15;;;;;;;21.20;4.82;;;;;;;;;;4994798;28;20370;-62
2022/01/07 11:55:42;;;;;;;30.15;6.60;;;;;;;;;;5001095;28;20034;-62
2022/01/07 11:58:12;;;;;;;22.98;5.00;;;;;;;;;;4996365;28;20473;-62
2022/01/07 12:00:51;;;;;;;30.50;6.13;;;;;;;;;;5003418;28;20035;-62
2022/01/07 12:03:29;;;;;;;27.13;4.47;;;;;;;;;;5001073;28;20101;-62
2022/01/07 12:05:55;;;;;;;33.00;4.32;;;;;;;;;;4998754;28;20479;-62
2022/01/07 12:08:37;;;;;;;29.67;5.40;;;;;;;;;;4990172;28;20034;-62
2022/01/07 12:11:10;;;;;;;34.92;6.32;;;;;;;;;;5001421;28;20029;-62
2022/01/07 12:13:37;;;;;;;32.85;5.40;;;;;;;;;;4994338;28;20470;-62
2022/01/07 12:16:03;;;;;;;31.30;5.47;;;;;;;;;;4995115;28;20077;-62
2022/01/07 12:18:38;;;;;;;29.15;5.15;;;;;;;;;;4997974;28;20109;-62
2022/01/07 12:21:04;;;;;;;33.20;6.60;;;;;;;;;;4996460;28;20068;-62
2022/01/07 12:23:31;;;;;;;28.02;4.90;;;;;;;;;;4992241;28;20026;-62
2022/01/07 12:26:01;;;;;;;32.58;7.10;;;;;;;;;;4992272;28;20057;-62
2022/01/07 12:28:27;;;;;;;25.70;4.97;;;;;;;;;;4992300;28;20057;-62
2022/01/07 12:31:05;;;;;;;27.20;5.70;;;;;;;;;;4999984;28;20040;-62
2022/01/07 12:33:31;;;;;;;26.30;5.28;;;;;;;;;;4998610;28;20394;-64
2022/01/07 12:35:57;;;;;;;34.08;5.25;;;;;;;;;;4997057;28;20037;-64
2022/01/07 12:38:24;;;;;;;34.47;6.05;;;;;;;;;;4974698;28;20137;-64
2022/01/07 12:40:54;;;;;;;31.42;6.82;;;;;;;;;;4996812;28;20062;-64
2022/01/07 12:43:29;;;;;;;45.45;9.52;;;;;;;;;;4995469;28;20505;-64
2022/01/07 12:45:59;;;;;;;52.33;7.57;;;;;;;;;;5001511;28;20113;-65
2022/01/07 12:48:36;;;;;;;45.88;19.17;;;;;;;;;;5004249;28;20074;-65
2022/01/07 12:51:03;;;;;;;37.10;9.15;;;;;;;;;;4993778;28;20026;-65
2022/01/07 12:53:30;;;;;;;36.72;6.97;;;;;;;;;;5010395;28;20060;-65
2022/01/07 12:55:56;;;;;;;37.10;6.35;;;;;;;;;;4998222;28;20035;-64
2022/01/07 12:58:28;;;;;;;35.47;5.60;;;;;;;;;;4999421;28;20100;-64
2022/01/07 13:00:55;;;;;;;28.77;5.75;;;;;;;;;;4996829;28;20030;-64
2022/01/07 13:03:26;;;;;;;35.53;6.25;;;;;;;;;;4995021;28;20622;-64
2022/01/07 13:05:53;;;;;;;40.57;7.13;;;;;;;;;;4992993;28;20493;-64
2022/01/07 13:08:20;;;;;;;37.05;7.25;;;;;;;;;;4999401;28;20506;-64
2022/01/07 13:10:47;;;;;;;32.33;5.90;;;;;;;;;;4990736;28;20525;-64
2022/01/07 13:13:14;;;;;;;41.25;7.25;;;;;;;;;;4995836;28;20456;-64
2022/01/07 13:15:54;;;;;;;33.58;7.30;;;;;;;;;;4995887;28;20027;-64
2022/01/07 13:18:20;;;;;;;31.70;6.28;;;;;;;;;;4997864;28;20022;-64
2022/01/07 13:20:47;;;;;;;51.17;7.65;;;;;;;;;;4998502;28;20031;-64
2022/01/07 13:23:14;;;;;;;38.08;6.40;;;;;;;;;;4997060;28;20125;-64
2022/01/07 13:25:40;;;;;;;39.00;6.85;;;;;;;;;;4996503;28;20048;-64
2022/01/07 13:28:06;;;;;;;43.53;6.65;;;;;;;;;;4988910;28;20037;-64
2022/01/07 13:30:53;;;;;;;40.75;7.43;;;;;;;;;;5001487;28;20027;-65
2022/01/07 13:33:25;;;;;;;35.47;6.38;;;;;;;;;;5000240;28;20054;-65
2022/01/07 13:35:58;;;;;;;46.92;8.35;;;;;;;;;;4999793;28;20414;-65
2022/01/07 13:38:24;;;;;;;;;;;;;;;;;;4996233;28;20046;-65
2022/01/07 13:41:05;;;;;;;40.63;6.13;;;;;;;;;;4981618;28;19913;-65
2022/01/07 13:43:33;;;;;;;34.33;5.53;;;;;;;;;;4990519;28;20022;-65
2022/01/07 13:46:08;;;;;;;48.90;6.75;;;;;;;;;;4988475;28;20041;-65
2022/01/07 13:48:34;;;;;;;38.05;6.13;;;;;;;;;;5001413;28;20030;-65
2022/01/07 13:51:10;;;;;;;35.78;6.43;;;;;;;;;;5001536;28;20037;-65
2022/01/07 13:53:36;;;;;;;30.52;7.47;;;;;;;;;;4991400;28;20030;-65
2022/01/07 13:56:06;;;;;;;32.75;6.40;;;;;;;;;;4992164;28;20031;-65
2022/01/07 13:58:32;;;;;;;31.42;5.80;;;;;;;;;;4999048;28;20022;-65
2022/01/07 14:01:05;;;;;;;33.72;6.00;;;;;;;;;;4992799;28;20410;-65
2022/01/07 14:03:47;;;;;;;34.78;6.10;;;;;;;;;;4988876;28;20034;-65
2022/01/07 14:06:18;;;;;;;39.58;7.50;;;;;;;;;;4974086;28;20030;-65
2022/01/07 14:08:44;;;;;;;34.45;6.35;;;;;;;;;;5000708;28;20526;-65
2022/01/07 14:11:14;;;;;;;38.97;7.18;;;;;;;;;;4993855;28;20023;-65
2022/01/07 14:13:40;;;;;;;45.05;10.25;;;;;;;;;;4997250;28;20030;-65
2022/01/07 14:16:06;;;;;;;43.75;9.15;;;;;;;;;;4996123;28;20025;-65
2022/01/07 14:18:36;;;;;;;47.92;8.70;;;;;;;;;;5000839;28;20104;-65
2022/01/07 14:21:07;;;;;;;37.50;7.80;;;;;;;;;;4998696;28;20053;-65
2022/01/07 14:23:34;;;;;;;42.85;8.52;;;;;;;;;;4999321;28;20545;-65
2022/01/07 14:26:02;;;;;;;45.22;8.18;;;;;;;;;;5002634;28;20026;-65
2022/01/07 14:28:28;;;;;;;42.17;7.15;;;;;;;;;;5002553;28;20030;-65
2022/01/07 14:30:54;;;;;;;43.22;7.05;;;;;;;;;;4999108;28;20467;-65
2022/01/07 14:33:21;;;;;;;70.38;9.50;;;;;;;;;;4991505;28;20489;-65
2022/01/07 14:35:50;;;;;;;45.00;8.85;;;;;;;;;;4993057;28;20029;-65
2022/01/07 14:38:16;;;;;;;50.10;7.45;;;;;;;;;;4997092;28;20076;-65
2022/01/07 14:40:43;;;;;;;44.25;8.30;;;;;;;;;;4998169;28;20034;-66
2022/01/07 14:43:15;;;;;;;55.35;9.35;;;;;;;;;;4994520;28;20022;-65
2022/01/07 14:45:41;;;;;;;48.67;8.43;;;;;;;;;;4994822;28;20026;-65